Terminal Aerodrome Forecast
Issued by NWS Corpus Christi, TX

Home | Current Version | Previous Version | Text Only | Print | Product List | Glossary On
Versions: 1 2 3 4 5 6 7 8 9 10 11 12
954
FTUS44 KCRP 260534
TAFCRP
TAF
KCRP 260534Z 2606/2706 14008KT P6SM FEW018 BKN200
     FM261400 16011G16KT P6SM SCT025 BKN250
     FM261900 14016G22KT P6SM FEW035 BKN250
     FM270200 15011KT P6SM FEW025 BKN200=

USA.gov is the U.S. government's official web portal to all federal, state and local government web resources and services.